Time;durP1;ratioP1;P1;durP2;ratioP2;P2;SDS_P1;SDS_P2;PMS_P1;PMS_P2;Temp;Humidity;BMP_temperature;BMP_pressure;BME280_temperature;BME280_humidity;BME280_pressure;Samples;Min_cycle;Max_cycle;Signal;HPM_P1;HPM_P2
2021/12/18 00:00:45;;;;;;;3.78;1.95;;;;;;;19.17;48.84;103946.78;5032844;28;20496;-65
2021/12/18 00:03:11;;;;;;;3.72;1.92;;;;;;;19.17;48.58;103951.22;5033879;28;20032;-65
2021/12/18 00:05:36;;;;;;;3.87;1.97;;;;;;;19.15;48.63;103945.09;5034007;28;20366;-66
2021/12/18 00:08:07;;;;;;;3.78;2.00;;;;;;;19.15;48.55;103939.81;5032608;28;20271;-64
2021/12/18 00:10:33;;;;;;;3.70;1.80;;;;;;;19.12;48.80;103938.16;5033839;28;20232;-66
2021/12/18 00:13:00;;;;;;;4.43;1.83;;;;;;;19.12;48.40;103929.34;5033580;28;20558;-66
2021/12/18 00:15:26;;;;;;;3.50;1.90;;;;;;;19.11;48.09;103944.38;5032771;28;20036;-66
2021/12/18 00:17:52;;;;;;;3.72;2.10;;;;;;;19.11;48.40;103932.94;5032749;28;20025;-65
2021/12/18 00:20:17;;;;;;;4.05;1.70;;;;;;;19.08;48.31;103941.81;5033003;28;20041;-66
2021/12/18 00:22:44;;;;;;;4.05;1.83;;;;;;;19.08;48.45;103935.69;5032707;28;20061;-65
2021/12/18 00:25:10;;;;;;;4.07;1.98;;;;;;;19.07;48.51;103939.25;5033495;28;20029;-65
2021/12/18 00:27:36;;;;;;;3.60;2.00;;;;;;;19.06;48.53;103934.88;5032747;28;20076;-66
2021/12/18 00:30:04;;;;;;;4.20;2.00;;;;;;;19.04;48.40;103932.28;5033075;28;20053;-66
2021/12/18 00:32:29;;;;;;;4.78;2.10;;;;;;;19.03;48.51;103930.56;5033473;28;20083;-65
2021/12/18 00:34:54;;;;;;;3.53;1.87;;;;;;;19.03;48.44;103917.34;5032320;28;20419;-66
2021/12/18 00:37:19;;;;;;;3.70;1.87;;;;;;;19.01;48.51;103924.47;5033236;28;20287;-65
2021/12/18 00:39:55;;;;;;;3.53;1.88;;;;;;;18.99;48.53;103928.94;5032912;28;20283;-65
2021/12/18 00:42:38;;;;;;;4.00;1.80;;;;;;;18.98;48.26;103930.72;5032583;28;20037;-65
2021/12/18 00:45:14;;;;;;;3.60;1.90;;;;;;;18.98;48.34;103914.03;5032985;28;20109;-65
2021/12/18 00:47:41;;;;;;;3.88;1.95;;;;;;;18.96;48.33;103918.47;5033106;28;20029;-66
2021/12/18 00:50:10;;;;;;;3.05;1.70;;;;;;;18.95;48.13;103917.63;5032417;28;20025;-65
2021/12/18 00:52:38;;;;;;;3.30;1.70;;;;;;;18.93;48.41;103913.31;5032966;28;20517;-65
2021/12/18 00:55:04;;;;;;;3.22;1.52;;;;;;;18.92;48.38;103917.75;5032570;28;20043;-65
2021/12/18 00:57:29;;;;;;;3.70;1.80;;;;;;;18.91;48.04;103912.50;5032094;28;20095;-65
2021/12/18 01:00:00;;;;;;;4.07;1.80;;;;;;;18.90;48.27;103910.78;5032800;28;20418;-66
2021/12/18 01:02:26;;;;;;;3.22;1.60;;;;;;;18.88;48.29;103913.47;5032958;28;20362;-65
2021/12/18 01:04:54;;;;;;;3.95;1.73;;;;;;;18.88;48.25;103909.97;5031736;28;20026;-66
2021/12/18 01:07:19;;;;;;;3.53;1.60;;;;;;;18.87;48.18;103911.75;5032713;28;20025;-65
2021/12/18 01:10:17;;;;;;;3.17;1.80;;;;;;;18.86;48.34;103912.66;5031609;28;20379;-65
2021/12/18 01:12:46;;;;;;;2.97;1.70;;;;;;;18.83;48.31;103904.81;5032526;28;20388;-65
2021/12/18 01:15:18;;;;;;;3.97;1.80;;;;;;;18.83;48.16;103903.06;5032660;28;20033;-65
2021/12/18 01:23:13;;;;;;;2.78;1.50;;;;;;;18.80;48.09;103903.16;5032657;28;20114;-65
2021/12/18 01:25:39;;;;;;;3.42;1.63;;;;;;;18.80;48.07;103902.28;5031833;28;20533;-65
2021/12/18 01:28:04;;;;;;;3.45;1.52;;;;;;;18.78;48.08;103899.69;5032482;28;20536;-64
2021/12/18 01:30:30;;;;;;;3.70;1.67;;;;;;;18.77;47.99;103905.91;5036901;28;20473;-64
2021/12/18 01:32:55;;;;;;;3.30;1.70;;;;;;;18.77;48.24;103905.03;5038071;28;20021;-65
2021/12/18 01:35:21;;;;;;;3.20;1.63;;;;;;;18.75;47.99;103904.25;5039250;28;20038;-65
2021/12/18 01:37:49;;;;;;;3.00;1.50;;;;;;;18.76;47.98;103903.34;5038349;28;20026;-65
2021/12/18 01:40:14;;;;;;;3.38;1.60;;;;;;;18.74;48.04;103906.03;5038999;28;20039;-64
2021/12/18 01:53:20;;;;;;;2.90;1.38;;;;;;;18.70;47.82;103917.59;5038137;28;20167;-65
2021/12/18 01:55:48;;;;;;;2.83;1.30;;;;;;;18.71;48.17;103919.34;5038554;28;20124;-65
2021/12/18 01:58:19;;;;;;;3.25;1.30;;;;;;;18.68;47.99;103917.66;5038959;28;20025;-65
2021/12/18 02:00:44;;;;;;;3.20;1.60;;;;;;;18.68;48.02;103922.09;5038004;28;20065;-65
2021/12/18 02:03:10;;;;;;;3.08;1.50;;;;;;;18.68;47.91;103924.72;5038856;28;20045;-65
2021/12/18 02:05:37;;;;;;;3.53;1.70;;;;;;;18.68;48.02;103922.09;5038680;28;20130;-65
2021/12/18 02:08:03;;;;;;;3.50;1.45;;;;;;;18.65;48.12;103917.78;5037589;28;20405;-65
2021/12/18 02:10:31;;;;;;;3.95;1.55;;;;;;;18.66;48.02;103924.78;5038692;28;20046;-65
2021/12/18 02:21:17;;;;;;;3.67;1.33;;;;;;;18.62;47.98;103923.16;4957781;29;20038;-64
2021/12/18 02:23:43;;;;;;;2.80;1.30;;;;;;;18.62;47.53;103917.03;5008997;28;20285;-64
2021/12/18 02:26:08;;;;;;;2.70;1.30;;;;;;;18.60;47.82;103916.22;5038545;28;20037;-65
2021/12/18 02:28:34;;;;;;;3.08;1.50;;;;;;;18.60;48.00;103913.59;5038149;28;20021;-64
2021/12/18 02:31:00;;;;;;;2.65;1.35;;;;;;;18.60;47.93;103905.66;5038266;28;20065;-65
2021/12/18 02:33:29;;;;;;;2.28;1.10;;;;;;;18.60;47.76;103903.00;5038597;28;20104;-65
2021/12/18 02:35:57;;;;;;;3.03;1.23;;;;;;;18.58;47.71;103905.72;5037775;28;20096;-65
2021/12/18 02:43:54;;;;;;;2.30;1.20;;;;;;;18.56;48.15;103899.59;5035378;28;20152;-65
2021/12/18 02:46:20;;;;;;;3.67;1.30;;;;;;;18.56;47.78;103896.97;5034395;28;20404;-65
2021/12/18 02:48:50;;;;;;;2.75;1.30;;;;;;;18.56;47.84;103891.66;5034317;28;20033;-65
2021/12/18 02:51:17;;;;;;;2.85;1.35;;;;;;;18.55;47.54;103899.66;5035238;28;20477;-65
2021/12/18 02:53:46;;;;;;;3.25;1.52;;;;;;;18.54;47.85;103896.16;5034733;28;20547;-65
2021/12/18 02:56:12;;;;;;;2.92;1.38;;;;;;;18.54;47.96;103895.31;5034396;28;20045;-65
2021/12/18 02:58:39;;;;;;;3.53;1.55;;;;;;;18.54;47.41;103893.50;5035348;28;20018;-65
2021/12/18 03:01:07;;;;;;;3.20;1.40;;;;;;;18.53;47.91;103883.84;5035203;28;20071;-65
2021/12/18 03:03:36;;;;;;;3.10;1.50;;;;;;;18.52;47.66;103884.78;5034749;28;20045;-65
2021/12/18 03:06:41;;;;;;;3.05;1.30;;;;;;;18.51;47.52;103882.19;5034678;28;20031;-64
2021/12/18 03:09:26;;;;;;;3.50;1.50;;;;;;;18.51;47.64;103890.97;5033292;28;20440;-64
2021/12/18 03:20:58;;;;;;;3.58;1.50;;;;;;;18.48;47.73;103875.25;5034633;28;20048;-66
2021/12/18 03:23:08;;;;;;;2.83;1.40;;;;;;;18.47;47.75;103871.75;5034266;28;20033;-66
2021/12/18 03:25:36;;;;;;;2.30;1.25;;;;;;;18.45;47.57;103865.66;5033884;28;20538;-64
2021/12/18 03:28:04;;;;;;;2.38;1.15;;;;;;;18.45;47.63;103868.31;5034478;28;20030;-65
2021/12/18 03:30:30;;;;;;;2.45;1.17;;;;;;;18.45;47.58;103868.31;5033797;28;20053;-65
2021/12/18 03:32:55;;;;;;;2.90;1.30;;;;;;;18.45;47.81;103875.34;5034279;28;20485;-66
2021/12/18 03:35:21;;;;;;;3.50;1.60;;;;;;;18.44;47.68;103877.13;5034453;28;20022;-64
2021/12/18 03:37:46;;;;;;;2.22;1.23;;;;;;;18.44;47.70;103871.00;5033270;28;20022;-65
2021/12/18 03:40:17;;;;;;;2.80;1.48;;;;;;;18.42;47.59;103865.78;5034467;28;20036;-65
2021/12/18 03:42:43;;;;;;;2.75;1.30;;;;;;;18.42;47.54;103875.44;5034076;28;20452;-65
2021/12/18 03:45:10;;;;;;;2.42;1.10;;;;;;;18.42;47.42;103872.81;5033541;28;20022;-65
2021/12/18 03:47:35;;;;;;;2.88;1.30;;;;;;;18.41;47.63;103873.75;5034222;28;20048;-65
2021/12/18 03:50:01;;;;;;;2.55;1.30;;;;;;;18.41;47.45;103884.31;5033617;28;20029;-66
2021/12/18 03:52:26;;;;;;;2.92;1.27;;;;;;;18.40;47.60;103880.78;5033386;28;20061;-65
2021/12/18 03:54:54;;;;;;;2.67;1.35;;;;;;;18.39;47.55;103879.06;5033840;28;20362;-65
2021/12/18 03:57:20;;;;;;;2.58;1.30;;;;;;;18.39;47.45;103881.72;5034030;28;20434;-64
2021/12/18 03:59:51;;;;;;;3.30;1.30;;;;;;;18.39;47.59;103887.00;5033013;28;20052;-66
2021/12/18 04:02:16;;;;;;;3.00;1.45;;;;;;;18.38;47.59;103885.25;5034043;28;20310;-65
2021/12/18 04:04:42;;;;;;;2.67;1.35;;;;;;;18.38;47.56;103885.25;5033691;28;20056;-66
2021/12/18 04:07:08;;;;;;;2.72;1.30;;;;;;;18.36;47.75;103887.09;5033324;28;20080;-66
2021/12/18 04:09:34;;;;;;;3.05;1.40;;;;;;;18.36;47.71;103886.22;5034030;28;20026;-64
2021/12/18 04:11:59;;;;;;;2.80;1.30;;;;;;;18.35;47.47;103882.72;5033568;28;20037;-64
2021/12/18 04:14:28;;;;;;;2.65;1.27;;;;;;;18.34;47.85;103882.78;5033096;28;20362;-66
2021/12/18 04:16:53;;;;;;;3.05;1.50;;;;;;;18.35;47.72;103885.38;5033267;28;20566;-65
2021/12/18 04:19:19;;;;;;;3.07;1.30;;;;;;;18.34;47.43;103886.31;5033391;28;20128;-66
2021/12/18 04:21:45;;;;;;;2.55;1.30;;;;;;;18.34;47.78;103885.41;5032708;28;20282;-65
2021/12/18 04:24:13;;;;;;;2.58;1.33;;;;;;;18.31;47.78;103881.97;5033778;28;20025;-65
2021/12/18 04:26:39;;;;;;;2.35;1.30;;;;;;;18.31;47.65;103886.41;5032822;28;20060;-65
2021/12/18 04:29:23;;;;;;;2.65;1.30;;;;;;;18.31;47.88;103883.75;5033423;28;20076;-64
2021/12/18 04:31:48;;;;;;;2.03;1.10;;;;;;;18.30;47.45;103880.25;5033070;28;20049;-65
2021/12/18 04:34:14;;;;;;;3.53;1.50;;;;;;;18.30;47.21;103876.75;5032833;28;20527;-66
2021/12/18 04:36:39;;;;;;;2.75;1.23;;;;;;;18.30;47.68;103880.25;5033160;28;20033;-65
2021/12/18 04:39:04;;;;;;;3.07;1.43;;;;;;;18.30;47.72;103887.31;5033468;28;20143;-67
2021/12/18 04:41:39;;;;;;;3.47;1.50;;;;;;;18.27;47.37;103874.22;5032652;28;20299;-65
2021/12/18 04:44:05;;;;;;;2.75;1.30;;;;;;;18.28;47.59;103882.06;5033137;28;20155;-64
2021/12/18 04:46:31;;;;;;;2.80;1.27;;;;;;;18.30;47.51;103887.31;5032984;28;20026;-64
2021/12/18 04:48:56;;;;;;;3.10;1.30;;;;;;;18.31;47.87;103889.03;5032157;28;20028;-64
2021/12/18 04:51:23;;;;;;;2.90;1.30;;;;;;;18.34;47.79;103891.59;5032941;28;20022;-65
2021/12/18 04:53:51;;;;;;;2.72;1.42;;;;;;;18.36;47.81;103886.22;5032657;28;20033;-65
2021/12/18 04:56:16;;;;;;;3.13;1.20;;;;;;;18.36;47.53;103889.75;5032280;28;20048;-65
2021/12/18 04:58:47;;;;;;;2.28;1.15;;;;;;;18.39;47.61;103894.91;5032569;28;20430;-65
2021/12/18 05:01:12;;;;;;;2.45;1.27;;;;;;;18.41;47.63;103890.44;5033080;28;20029;-65
2021/12/18 05:03:40;;;;;;;3.10;1.23;;;;;;;18.42;47.22;103889.53;5032212;28;20033;-66
2021/12/18 05:06:05;;;;;;;2.88;1.35;;;;;;;18.42;47.36;103886.91;5032511;28;20072;-65
2021/12/18 05:08:30;;;;;;;2.33;1.17;;;;;;;18.42;47.22;103892.19;5032836;28;20073;-66
2021/12/18 05:10:56;;;;;;;2.67;1.27;;;;;;;18.43;47.38;103895.66;5031838;28;20052;-65
2021/12/18 05:13:21;;;;;;;2.42;1.20;;;;;;;18.44;47.09;103898.25;5032613;28;20059;-66
2021/12/18 05:15:46;;;;;;;2.65;1.13;;;;;;;18.45;46.80;103901.75;5031803;28;20030;-65
2021/12/18 05:18:11;;;;;;;2.83;1.10;;;;;;;18.45;47.12;103900.00;5032767;28;20021;-66
2021/12/18 05:20:37;;;;;;;2.85;1.35;;;;;;;18.46;46.92;103900.84;5032367;28;20057;-65
2021/12/18 05:23:02;;;;;;;2.60;1.20;;;;;;;18.46;46.93;103906.97;5031489;28;20037;-66
2021/12/18 05:25:28;;;;;;;3.33;1.20;;;;;;;18.46;46.86;103898.22;5032603;28;20385;-64
2021/12/18 05:27:53;;;;;;;3.60;1.17;;;;;;;18.46;46.99;103904.34;5032093;28;20083;-65
2021/12/18 05:30:18;;;;;;;2.85;1.30;;;;;;;18.48;46.92;103899.00;5031940;28;20033;-65
2021/12/18 05:32:44;;;;;;;2.97;1.20;;;;;;;18.46;46.88;103909.63;5032401;28;20021;-64
2021/12/18 05:35:09;;;;;;;2.70;1.20;;;;;;;18.46;47.04;103904.34;5032371;28;20045;-65
2021/12/18 05:40:15;;;;;;;3.67;1.23;;;;;;;18.47;46.87;103899.94;5032560;28;20541;-65
2021/12/18 05:42:40;;;;;;;2.88;1.35;;;;;;;18.46;46.80;103904.34;5032089;28;20025;-65
2021/12/18 05:45:07;;;;;;;2.55;1.10;;;;;;;18.47;46.96;103895.50;5031721;28;20384;-65
2021/12/18 05:47:32;;;;;;;2.90;1.20;;;;;;;18.45;47.08;103894.72;5032151;28;20414;-65
2021/12/18 05:49:57;;;;;;;2.47;1.10;;;;;;;18.47;47.04;103894.66;5032137;28;20112;-65
2021/12/18 05:52:24;;;;;;;2.83;1.20;;;;;;;18.47;47.17;103898.16;5031465;28;20065;-65
2021/12/18 05:54:49;;;;;;;2.55;1.20;;;;;;;18.47;46.79;103900.78;5032000;28;20311;-65
2021/12/18 05:57:14;;;;;;;3.43;1.40;;;;;;;18.48;47.01;103896.38;5032203;28;20068;-65
2021/12/18 05:59:40;;;;;;;2.63;1.10;;;;;;;18.48;46.98;103906.94;5031090;28;20294;-65
2021/12/18 06:02:06;;;;;;;2.80;1.33;;;;;;;18.49;46.89;103904.22;5032321;28;20039;-65
2021/12/18 06:04:31;;;;;;;2.90;1.30;;;;;;;18.51;46.75;103905.97;5032209;28;20017;-65
2021/12/18 06:07:03;;;;;;;3.10;1.25;;;;;;;18.51;46.90;103900.69;5031099;28;20032;-65
2021/12/18 06:09:30;;;;;;;2.92;1.40;;;;;;;18.52;47.26;103912.97;5032051;28;20067;-65
2021/12/18 06:11:55;;;;;;;2.67;1.05;;;;;;;18.52;47.49;103910.31;5031677;28;20481;-65
2021/12/18 06:14:20;;;;;;;2.20;1.00;;;;;;;18.52;47.73;103903.28;5031649;28;20041;-65
2021/12/18 06:16:45;;;;;;;2.07;1.00;;;;;;;18.55;47.99;103904.94;5033030;28;20753;-65
2021/12/18 06:19:10;;;;;;;2.13;1.10;;;;;;;18.56;47.70;103911.94;5035061;28;20655;-65
2021/12/18 06:21:37;;;;;;;2.13;1.00;;;;;;;18.56;48.16;103898.75;5035857;28;20282;-66
2021/12/18 06:24:02;;;;;;;2.20;0.90;;;;;;;18.58;48.04;103899.53;5035411;28;20072;-66
2021/12/18 06:26:27;;;;;;;2.05;1.00;;;;;;;18.58;48.23;103904.81;5034737;28;20291;-66
2021/12/18 06:28:56;;;;;;;1.75;0.90;;;;;;;18.60;48.25;103901.22;5035649;28;20392;-67
2021/12/18 06:31:21;;;;;;;2.20;0.93;;;;;;;18.61;47.75;103900.31;5035696;28;20021;-65
2021/12/18 06:33:47;;;;;;;2.85;1.00;;;;;;;18.63;48.07;103900.28;5034392;28;20022;-65
2021/12/18 06:36:12;;;;;;;2.47;0.90;;;;;;;18.63;48.21;103903.75;5035550;28;20252;-65
2021/12/18 06:38:37;;;;;;;3.72;0.82;;;;;;;18.65;48.42;103904.56;5035390;28;20630;-65
2021/12/18 06:41:03;;;;;;;2.42;0.80;;;;;;;18.66;48.13;103901.00;5034331;28;20527;-65
2021/12/18 06:43:28;;;;;;;1.73;0.85;;;;;;;18.69;48.28;103902.66;5035427;28;20038;-65
2021/12/18 06:45:53;;;;;;;1.00;0.70;;;;;;;18.70;48.35;103903.53;5034972;28;20076;-66
2021/12/18 06:48:19;;;;;;;1.35;0.73;;;;;;;18.71;48.28;103903.50;5034583;28;20029;-65
2021/12/18 06:50:44;;;;;;;2.15;0.70;;;;;;;18.72;48.22;103896.41;5034902;28;20037;-66
2021/12/18 06:53:09;;;;;;;1.47;0.73;;;;;;;18.74;48.32;103892.81;5035297;28;20030;-66
2021/12/18 06:55:35;;;;;;;1.87;0.97;;;;;;;18.75;48.18;103899.81;5034340;28;20627;-65
2021/12/18 06:58:00;;;;;;;1.23;0.80;;;;;;;18.77;48.13;103900.63;5034960;28;20313;-65
2021/12/18 07:00:27;;;;;;;1.33;0.80;;;;;;;18.78;48.31;103888.28;5035258;28;20030;-65
2021/12/18 07:02:56;;;;;;;1.92;0.80;;;;;;;18.78;48.24;103894.41;5033994;28;20469;-65
2021/12/18 07:05:21;;;;;;;1.30;0.70;;;;;;;18.80;48.09;103897.88;5034969;28;20091;-65
2021/12/18 07:07:47;;;;;;;1.45;0.70;;;;;;;18.81;48.04;103896.94;5034677;28;20034;-65
2021/12/18 07:10:14;;;;;;;3.30;1.17;;;;;;;18.81;47.74;103893.47;5034069;28;20409;-67
2021/12/18 07:12:43;;;;;;;3.38;0.90;;;;;;;18.81;47.55;103894.31;5034498;28;20025;-64
2021/12/18 07:15:10;;;;;;;1.70;0.90;;;;;;;18.81;47.74;103891.66;5035056;28;20075;-64
2021/12/18 07:17:36;;;;;;;1.90;0.98;;;;;;;18.82;47.76;103896.03;5034215;28;20101;-64
2021/12/18 07:20:02;;;;;;;3.53;1.30;;;;;;;18.81;47.81;103886.38;5034059;28;20447;-63
2021/12/18 07:22:27;;;;;;;3.33;0.93;;;;;;;18.83;48.13;103888.97;5033751;28;20041;-64
2021/12/18 07:24:53;;;;;;;2.20;1.10;;;;;;;18.84;48.00;103888.94;5034252;28;20030;-64
2021/12/18 07:27:18;;;;;;;1.70;0.90;;;;;;;18.88;48.04;103891.47;5034192;28;20046;-63
2021/12/18 07:29:46;;;;;;;2.72;1.00;;;;;;;18.89;47.93;103890.56;5033509;28;20091;-63
2021/12/18 07:32:11;;;;;;;2.63;1.20;;;;;;;18.90;47.56;103887.00;5034648;28;20029;-63
2021/12/18 07:34:38;;;;;;;2.47;1.20;;;;;;;18.91;47.87;103886.09;5034470;28;20064;-63
2021/12/18 07:37:03;;;;;;;2.45;0.90;;;;;;;18.91;48.14;103894.88;5033110;28;20034;-64
2021/12/18 07:39:28;;;;;;;2.13;0.98;;;;;;;18.92;48.00;103891.31;5034701;28;20025;-64
2021/12/18 07:41:54;;;;;;;2.60;1.00;;;;;;;18.93;48.16;103893.06;5034212;28;20104;-63
2021/12/18 07:44:19;;;;;;;2.55;0.80;;;;;;;18.94;48.27;103896.53;5033491;28;20179;-62
2021/12/18 07:46:47;;;;;;;2.40;0.82;;;;;;;18.94;48.00;103902.69;5034063;28;20029;-62
2021/12/18 07:49:13;;;;;;;1.50;0.80;;;;;;;18.96;48.11;103902.63;5034197;28;20052;-63
2021/12/18 07:51:38;;;;;;;1.90;0.80;;;;;;;18.96;48.19;103902.63;5033406;28;20477;-62
2021/12/18 07:54:04;;;;;;;2.50;0.88;;;;;;;18.98;48.39;103900.81;5033785;28;20459;-63
2021/12/18 07:56:30;;;;;;;1.35;0.80;;;;;;;18.99;48.47;103907.81;5034196;28;20121;-64
2021/12/18 07:58:56;;;;;;;3.92;0.95;;;;;;;19.00;48.48;103907.75;5033152;28;20128;-63
2021/12/18 08:01:21;;;;;;;2.17;1.00;;;;;;;19.00;48.58;103901.59;5033799;28;20036;-63
2021/12/18 08:03:47;;;;;;;2.85;0.80;;;;;;;19.01;48.25;103903.34;5033754;28;20121;-64
2021/12/18 08:06:12;;;;;;;1.67;0.75;;;;;;;19.03;48.34;103904.13;5033025;28;20120;-65
2021/12/18 08:08:37;;;;;;;2.08;0.80;;;;;;;19.04;48.06;103908.47;5034016;28;20056;-62
2021/12/18 08:11:04;;;;;;;2.80;0.95;;;;;;;19.03;48.23;103902.34;5033595;28;20053;-64
2021/12/18 08:13:29;;;;;;;1.40;0.75;;;;;;;19.05;48.30;103904.09;5033100;28;20080;-65
2021/12/18 08:15:55;;;;;;;2.20;0.90;;;;;;;19.04;48.24;103905.84;5033316;28;20029;-65
2021/12/18 08:18:20;;;;;;;2.97;0.95;;;;;;;19.05;48.37;103904.94;5033530;28;20072;-65
2021/12/18 08:20:48;;;;;;;2.90;1.00;;;;;;;19.06;48.35;103903.16;5032723;28;20056;-62
2021/12/18 08:23:13;;;;;;;2.03;0.73;;;;;;;19.07;48.28;103910.16;5033434;28;20042;-65
2021/12/18 08:25:39;;;;;;;2.22;0.90;;;;;;;19.06;48.34;103906.66;5032976;28;20381;-65
2021/12/18 08:28:06;;;;;;;3.08;0.85;;;;;;;19.06;48.57;103904.03;5033578;28;20029;-64
2021/12/18 08:30:38;;;;;;;2.15;0.90;;;;;;;19.08;48.13;103902.19;5033520;28;20045;-64
2021/12/18 08:33:04;;;;;;;2.40;0.90;;;;;;;19.07;48.13;103905.72;5032429;28;20025;-65
2021/12/18 08:35:31;;;;;;;2.60;1.10;;;;;;;19.07;48.09;103907.53;5033214;28;20049;-64
2021/12/18 08:37:57;;;;;;;2.03;1.00;;;;;;;19.06;48.00;103903.16;5033147;28;20045;-64
2021/12/18 08:40:24;;;;;;;3.10;0.98;;;;;;;19.05;48.13;103896.16;5031470;28;20025;-65
2021/12/18 08:42:52;;;;;;;2.22;0.85;;;;;;;19.07;48.33;103905.72;5033107;28;20029;-65
2021/12/18 08:45:17;;;;;;;1.30;0.60;;;;;;;19.07;48.31;103900.44;5033140;28;20389;-65
2021/12/18 08:47:43;;;;;;;2.60;0.90;;;;;;;19.07;48.18;103899.59;5032030;28;20027;-65
2021/12/18 08:50:13;;;;;;;3.10;1.05;;;;;;;19.07;48.32;103910.16;5033231;28;20543;-65
2021/12/18 08:52:39;;;;;;;2.88;1.10;;;;;;;19.06;47.71;103909.31;5033265;28;20025;-65
2021/12/18 08:55:05;;;;;;;2.10;0.80;;;;;;;19.10;48.20;103907.41;5034335;28;20392;-69
2021/12/18 08:57:30;;;;;;;3.50;1.10;;;;;;;19.17;47.87;103903.63;5033685;28;20022;-69
2021/12/18 08:59:56;;;;;;;2.60;0.90;;;;;;;19.18;47.73;103903.56;5032619;28;20073;-69
2021/12/18 09:02:22;;;;;;;1.48;0.73;;;;;;;19.18;47.69;103913.25;5032168;28;20071;-68
2021/12/18 09:04:48;;;;;;;2.30;0.90;;;;;;;19.16;47.69;103909.81;5032555;28;20079;-68
2021/12/18 09:07:14;;;;;;;2.38;1.05;;;;;;;19.14;47.78;103915.16;5032874;28;20036;-68
2021/12/18 09:09:39;;;;;;;1.77;0.70;;;;;;;19.11;47.91;103904.72;5031738;28;20469;-68
2021/12/18 09:12:06;;;;;;;3.72;0.90;;;;;;;19.10;47.71;103910.91;5032637;28;20109;-68
2021/12/18 09:14:31;;;;;;;4.28;1.00;;;;;;;19.11;47.92;103909.16;5032723;28;20070;-67
2021/12/18 09:16:58;;;;;;;1.70;0.80;;;;;;;19.10;48.04;103915.34;5031953;28;20060;-67
2021/12/18 09:19:23;;;;;;;2.33;0.90;;;;;;;19.10;48.17;103910.06;5032866;28;20046;-68
2021/12/18 09:21:48;;;;;;;3.70;0.80;;;;;;;19.09;47.77;103909.19;5033103;28;20409;-68
2021/12/18 09:24:17;;;;;;;2.40;0.90;;;;;;;19.07;47.67;103908.38;5032861;28;20281;-67
2021/12/18 09:26:42;;;;;;;2.97;1.13;;;;;;;19.08;47.59;103896.88;5033382;28;20021;-70
2021/12/18 09:29:08;;;;;;;2.25;1.00;;;;;;;19.09;47.46;103903.03;5032095;28;20050;-72
2021/12/18 09:31:33;;;;;;;2.22;1.00;;;;;;;19.06;47.51;103911.06;5036629;28;20041;-70
2021/12/18 09:33:59;;;;;;;2.50;1.13;;;;;;;19.07;46.85;103910.16;5035054;28;20056;-71
2021/12/18 09:36:24;;;;;;;2.35;1.00;;;;;;;19.05;47.40;103909.38;5035369;28;20330;-73
2021/12/18 09:38:49;;;;;;;2.58;0.80;;;;;;;19.05;47.85;103915.50;5035884;28;20033;-73
2021/12/18 09:41:15;;;;;;;1.13;0.68;;;;;;;19.06;48.13;103905.78;5037459;28;20014;-72
2021/12/18 09:43:40;;;;;;;1.83;0.90;;;;;;;19.06;47.90;103914.59;5036444;28;20396;-72
2021/12/18 09:46:12;;;;;;;1.30;0.60;;;;;;;19.06;48.22;103906.66;5035750;28;20404;-72
2021/12/18 09:48:43;;;;;;;2.25;0.90;;;;;;;19.09;48.05;103908.31;5034038;28;20025;-74
2021/12/18 09:51:18;;;;;;;2.30;0.68;;;;;;;19.09;48.06;103905.69;5035197;28;20021;-74
2021/12/18 09:53:44;;;;;;;1.35;0.55;;;;;;;19.10;48.04;103908.25;5037668;28;20060;-73
2021/12/18 09:56:09;;;;;;;3.88;0.80;;;;;;;19.10;47.75;103902.97;5037466;28;20033;-73
2021/12/18 09:58:40;;;;;;;1.15;0.70;;;;;;;19.09;47.82;103889.81;5035944;28;20477;-73
2021/12/18 10:01:05;;;;;;;1.77;0.70;;;;;;;19.09;47.96;103898.63;5037070;28;20037;-75
2021/12/18 10:03:54;;;;;;;1.67;0.70;;;;;;;19.10;47.34;103902.13;5036662;28;20076;-73
2021/12/18 10:06:41;;;;;;;2.25;0.88;;;;;;;19.06;47.24;103893.44;5035762;28;20487;-68
2021/12/18 10:09:08;;;;;;;1.92;0.80;;;;;;;19.03;47.26;103888.28;5036508;28;20030;-70
2021/12/18 10:11:44;;;;;;;1.00;0.63;;;;;;;19.02;47.45;103881.25;5035783;28;20049;-71
2021/12/18 10:14:09;;;;;;;3.13;0.93;;;;;;;19.01;47.59;103890.97;5036367;28;20018;-73
2021/12/18 10:16:48;;;;;;;2.58;0.70;;;;;;;19.01;47.75;103885.69;5035907;28;20041;-71
2021/12/18 10:19:32;;;;;;;2.10;0.80;;;;;;;19.01;47.50;103882.19;5035103;28;20045;-72
2021/12/18 10:22:06;;;;;;;2.88;0.98;;;;;;;19.01;47.66;103882.19;5035695;28;20022;-69
2021/12/18 10:24:33;;;;;;;3.58;1.00;;;;;;;19.02;47.67;103878.63;5035929;28;20033;-66
2021/12/18 10:27:00;;;;;;;2.67;0.70;;;;;;;19.02;47.75;103875.97;5034772;28;20611;-67
2021/12/18 10:29:35;;;;;;;3.40;0.90;;;;;;;19.03;47.87;103881.19;5035843;28;20041;-68
2021/12/18 10:32:04;;;;;;;3.17;0.85;;;;;;;19.04;47.87;103871.47;5035404;28;20064;-72
2021/12/18 10:34:30;;;;;;;2.58;0.90;;;;;;;19.05;48.07;103877.66;5034778;28;20025;-72
2021/12/18 10:37:12;;;;;;;2.08;0.70;;;;;;;19.06;47.84;103876.72;5035528;28;20112;-72
2021/12/18 10:39:44;;;;;;;1.90;0.70;;;;;;;19.07;48.04;103871.38;5035104;28;20029;-72
2021/12/18 10:42:16;;;;;;;2.25;0.88;;;;;;;19.08;47.90;103875.75;5035536;28;20045;-72
2021/12/18 10:45:19;;;;;;;1.35;0.60;;;;;;;19.07;48.06;103876.66;5035059;28;20022;-72
2021/12/18 10:47:53;;;;;;;2.88;0.88;;;;;;;19.08;47.91;103872.25;5035980;28;20132;-71
2021/12/18 10:50:33;;;;;;;2.30;0.80;;;;;;;19.09;48.04;103876.59;5035534;28;20025;-72
2021/12/18 10:53:13;;;;;;;1.98;0.65;;;;;;;19.08;47.71;103869.59;5035217;28;20393;-72
2021/12/18 10:55:44;;;;;;;2.28;0.80;;;;;;;19.08;47.96;103867.81;5035086;28;20064;-72
2021/12/18 10:58:16;;;;;;;3.58;0.85;;;;;;;19.09;47.63;103871.31;5035372;28;20069;-71
2021/12/18 11:00:46;;;;;;;2.75;0.90;;;;;;;19.09;47.69;103868.66;5034430;28;20029;-71
2021/12/18 11:03:18;;;;;;;2.35;0.90;;;;;;;19.08;47.93;103866.97;5034368;28;20064;-72
2021/12/18 11:06:04;;;;;;;1.67;0.60;;;;;;;19.08;48.31;103865.16;5034754;28;20029;-70
2021/12/18 11:08:30;;;;;;;2.20;0.90;;;;;;;19.10;48.38;103862.47;5034504;28;20059;-69
2021/12/18 11:13:50;;;;;;;1.83;0.70;;;;;;;19.12;47.97;103872.06;5034879;28;20453;-71
2021/12/18 11:16:19;;;;;;;2.33;0.70;;;;;;;19.11;48.03;103875.63;5034324;28;20053;-69
2021/12/18 11:18:46;;;;;;;1.58;0.70;;;;;;;19.11;47.99;103867.69;5034419;28;20037;-70
2021/12/18 11:21:15;;;;;;;3.22;0.70;;;;;;;19.11;47.94;103865.06;5034842;28;20465;-72
2021/12/18 11:24:01;;;;;;;1.63;0.70;;;;;;;19.12;47.75;103871.19;5033851;28;20047;-69
2021/12/18 11:26:33;;;;;;;1.88;0.60;;;;;;;19.10;47.81;103865.97;5034721;28;20120;-71
2021/12/18 11:29:00;;;;;;;2.30;0.75;;;;;;;19.10;47.84;103862.47;5033788;28;20067;-69
2021/12/18 11:31:26;;;;;;;1.52;0.60;;;;;;;19.11;47.58;103862.41;5034619;28;20039;-72
2021/12/18 11:33:51;;;;;;;1.58;0.70;;;;;;;19.11;47.51;103861.56;5034355;28;20404;-72
2021/12/18 11:36:17;;;;;;;2.05;0.70;;;;;;;19.09;47.35;103861.63;5033737;28;20021;-69
2021/12/18 11:38:46;;;;;;;1.77;0.70;;;;;;;19.07;47.30;103852.00;5034123;28;20037;-69
2021/12/18 11:41:17;;;;;;;1.17;0.57;;;;;;;19.07;47.79;103854.66;5034649;28;20025;-69
2021/12/18 11:43:45;;;;;;;10.73;2.45;;;;;;;19.06;47.70;103852.91;5033492;28;20101;-69
2021/12/18 11:46:33;;;;;;;1.80;0.60;;;;;;;19.05;47.68;103849.44;5034350;28;20033;-69
2021/12/18 11:49:03;;;;;;;2.72;0.70;;;;;;;19.05;47.83;103849.44;5033920;28;20065;-69
2021/12/18 11:51:32;;;;;;;2.33;0.77;;;;;;;19.06;47.93;103850.28;5033470;28;20053;-72
2021/12/18 11:53:58;;;;;;;1.23;0.60;;;;;;;19.03;47.54;103846.84;5034009;28;20048;-67
2021/12/18 11:56:26;;;;;;;1.88;0.70;;;;;;;19.04;47.67;103842.41;5034171;28;20033;-68
2021/12/18 11:58:52;;;;;;;1.23;0.60;;;;;;;19.02;47.79;103834.53;5033059;28;20074;-67
2021/12/18 12:01:21;;;;;;;2.50;0.88;;;;;;;19.03;47.95;103836.25;5034056;28;20116;-68
2021/12/18 12:03:52;;;;;;;1.77;0.80;;;;;;;19.02;47.67;103829.25;5033130;28;20030;-67
2021/12/18 12:06:31;;;;;;;1.40;0.70;;;;;;;19.03;47.81;103830.13;5033298;28;20080;-68
2021/12/18 12:09:36;;;;;;;3.20;0.73;;;;;;;19.02;48.03;103821.31;5033731;28;20026;-68
2021/12/18 12:12:11;;;;;;;1.75;0.90;;;;;;;19.02;48.19;103829.25;5032680;28;20666;-67